Time;durP1;ratioP1;P1;durP2;ratioP2;P2;SDS_P1;SDS_P2;PMS_P1;PMS_P2;Temp;Humidity;BMP_temperature;BMP_pressure;BME280_temperature;BME280_humidity;BME280_pressure;Samples;Min_cycle;Max_cycle;Signal;HPM_P1;HPM_P2
2023/10/31 00:01:49;;;;;;;30.38;22.10;;;11.00;99.90;;;;;;6246457;23;20059;-85
2023/10/31 00:04:15;;;;;;;30.73;23.65;;;10.90;99.90;;;;;;6221749;23;20016;-84
2023/10/31 00:06:41;;;;;;;26.40;20.08;;;10.50;99.90;;;;;;6247251;23;20020;-84
2023/10/31 00:09:07;;;;;;;24.20;21.27;;;10.50;99.90;;;;;;6247754;23;20070;-84
2023/10/31 00:11:33;;;;;;;26.35;19.27;;;10.80;99.90;;;;;;6246371;23;20016;-84
2023/10/31 00:13:59;;;;;;;23.50;18.73;;;11.30;99.90;;;;;;6221510;23;20023;-84
2023/10/31 00:16:24;;;;;;;24.20;21.25;;;10.50;99.90;;;;;;6246610;23;20016;-84
2023/10/31 00:18:50;;;;;;;24.40;18.08;;;10.50;99.90;;;;;;6247605;23;20048;-85
2023/10/31 00:21:16;;;;;;;24.75;20.48;;;10.40;99.90;;;;;;6221622;23;20262;-85
2023/10/31 00:23:48;;;;;;;21.17;17.75;;;9.80;99.90;;;;;;6247533;23;20406;-85
2023/10/31 00:26:14;;;;;;;20.25;18.13;;;9.60;99.90;;;;;;6246594;23;20012;-86
2023/10/31 00:28:40;;;;;;;20.77;17.13;;;10.80;99.90;;;;;;6222075;23;20016;-86
2023/10/31 00:31:07;;;;;;;20.60;18.70;;;10.40;99.90;;;;;;6221035;23;20012;-86
2023/10/31 00:33:37;;;;;;;22.08;19.17;;;11.00;99.90;;;;;;6221601;23;20016;-85
2023/10/31 00:36:03;;;;;;;21.65;19.40;;;10.40;99.90;;;;;;6246401;23;20004;-86
2023/10/31 00:38:29;;;;;;;20.60;18.35;;;10.40;99.90;;;;;;6221047;23;20012;-86
2023/10/31 00:40:54;;;;;;;23.65;21.25;;;10.40;99.90;;;;;;6247078;23;20016;-85
2023/10/31 00:43:20;;;;;;;18.08;16.67;;;10.70;99.90;;;;;;6245395;23;20064;-85
2023/10/31 00:45:46;;;;;;;18.77;16.85;;;11.30;99.90;;;;;;6219932;23;20023;-86
2023/10/31 00:48:11;;;;;;;19.25;15.35;;;10.30;99.90;;;;;;6220159;23;20027;-85
2023/10/31 00:50:37;;;;;;;17.00;15.60;;;10.30;99.90;;;;;;6220557;23;20012;-85
2023/10/31 00:53:03;;;;;;;19.73;18.30;;;10.80;99.90;;;;;;6221264;23;20095;-86
2023/10/31 00:55:28;;;;;;;18.17;16.58;;;11.20;99.90;;;;;;6245981;23;20004;-86
2023/10/31 00:57:54;;;;;;;18.20;16.67;;;10.30;99.90;;;;;;6220242;23;20019;-86
2023/10/31 01:00:20;;;;;;;17.80;16.45;;;10.30;99.90;;;;;;6245495;23;20016;-86
2023/10/31 01:02:46;;;;;;;18.63;17.20;;;10.30;99.90;;;;;;6220345;23;20350;-86
2023/10/31 01:05:11;;;;;;;18.33;16.42;;;11.20;99.90;;;;;;6220531;23;20052;-86
2023/10/31 01:07:37;;;;;;;18.00;16.45;;;10.60;99.90;;;;;;6220154;23;20091;-85
2023/10/31 01:10:04;;;;;;;17.20;15.70;;;10.30;99.90;;;;;;6245611;23;20039;-85
2023/10/31 01:12:30;;;;;;;18.10;16.58;;;10.10;99.90;;;;;;6246066;23;20012;-86
2023/10/31 01:14:56;;;;;;;21.90;20.02;;;10.30;99.90;;;;;;6220189;23;20012;-86
2023/10/31 01:17:22;;;;;;;16.25;14.73;;;11.00;99.90;;;;;;6219941;23;20019;-86
2023/10/31 01:19:48;;;;;;;19.88;18.27;;;10.70;99.90;;;;;;6220719;23;20096;-86
2023/10/31 01:22:13;;;;;;;16.45;15.10;;;10.30;99.90;;;;;;6220426;23;20359;-85
2023/10/31 01:24:39;;;;;;;20.02;18.25;;;10.20;99.90;;;;;;6220455;23;20016;-85
2023/10/31 01:27:05;;;;;;;17.95;16.55;;;11.10;99.90;;;;;;6245155;23;20023;-86
2023/10/31 01:29:30;;;;;;;17.63;16.13;;;10.20;99.90;;;;;;6218738;23;20377;-85
2023/10/31 01:31:56;;;;;;;16.67;15.43;;;11.00;99.90;;;;;;6220516;23;20043;-85
2023/10/31 01:34:22;;;;;;;17.75;16.15;;;10.10;99.90;;;;;;6218298;23;20016;-84
2023/10/31 01:36:48;;;;;;;21.30;19.55;;;10.10;99.90;;;;;;6245213;23;20457;-84
2023/10/31 01:39:14;;;;;;;19.90;18.27;;;10.10;99.90;;;;;;6244454;23;20016;-85
2023/10/31 01:41:43;;;;;;;19.85;18.17;;;11.10;99.90;;;;;;6219158;23;20062;-85
2023/10/31 01:44:09;;;;;;;17.20;15.68;;;10.60;99.90;;;;;;6244140;23;20062;-84
2023/10/31 01:46:35;;;;;;;24.60;22.52;;;10.20;99.90;;;;;;6243952;23;20467;-84
2023/10/31 01:49:01;;;;;;;21.05;19.35;;;10.10;99.90;;;;;;6218926;23;20058;-85
2023/10/31 01:51:28;;;;;;;20.23;18.45;;;10.60;99.90;;;;;;6244938;23;20008;-85
2023/10/31 01:53:55;;;;;;;18.65;17.05;;;10.70;99.90;;;;;;6244167;23;20086;-85
2023/10/31 01:56:22;;;;;;;28.27;26.10;;;9.90;99.90;;;;;;6244710;23;20024;-86
2023/10/31 01:58:49;;;;;;;24.70;22.88;;;10.90;99.90;;;;;;6244570;23;20012;-85
2023/10/31 02:01:16;;;;;;;26.70;24.45;;;10.40;99.90;;;;;;6219929;23;20050;-85
2023/10/31 02:03:42;;;;;;;27.55;25.50;;;9.90;99.90;;;;;;6220016;23;20020;-86
2023/10/31 02:06:07;;;;;;;23.63;21.90;;;10.30;99.90;;;;;;6244922;23;20019;-85
2023/10/31 02:08:33;;;;;;;23.17;21.15;;;10.40;99.90;;;;;;6219843;23;20074;-85
2023/10/31 02:10:59;;;;;;;25.38;23.08;;;9.80;99.90;;;;;;6220494;23;20196;-86
2023/10/31 02:13:25;;;;;;;23.80;21.75;;;9.80;99.90;;;;;;6219637;23;20016;-85
2023/10/31 02:15:51;;;;;;;21.42;19.63;;;9.90;99.90;;;;;;6243914;23;20034;-85
2023/10/31 02:18:17;;;;;;;24.80;22.20;;;10.50;99.90;;;;;;6219075;23;20012;-84
2023/10/31 02:20:43;;;;;;;21.55;19.60;;;10.00;99.90;;;;;;6244982;23;20409;-85
2023/10/31 02:23:08;;;;;;;24.60;22.17;;;9.90;99.90;;;;;;6219429;23;20451;-84
2023/10/31 02:25:34;;;;;;;27.00;24.35;;;9.80;99.90;;;;;;6217903;23;20019;-84
2023/10/31 02:28:00;;;;;;;27.90;25.50;;;10.20;99.90;;;;;;6243966;23;20458;-84
2023/10/31 02:30:26;;;;;;;21.13;18.98;;;10.20;99.90;;;;;;6243548;23;20012;-84
2023/10/31 02:32:51;;;;;;;29.15;26.70;;;10.80;99.90;;;;;;6217470;23;20046;-83
2023/10/31 02:35:18;;;;;;;23.67;21.38;;;10.70;99.90;;;;;;6243190;23;20103;-83
2023/10/31 02:37:44;;;;;;;20.55;18.80;;;10.10;99.90;;;;;;6217914;23;20088;-85
2023/10/31 02:40:11;;;;;;;20.48;16.85;;;9.80;99.90;;;;;;6244393;23;20196;-86
2023/10/31 02:42:36;;;;;;;24.48;22.02;;;9.80;99.90;;;;;;6243321;23;20093;-85
2023/10/31 02:45:03;;;;;;;17.92;16.05;;;10.80;99.90;;;;;;6243881;23;20024;-83
2023/10/31 02:47:28;;;;;;;20.40;18.27;;;9.60;99.90;;;;;;6217460;23;20103;-84
2023/10/31 02:49:54;;;;;;;19.80;16.25;;;10.40;99.90;;;;;;6218486;23;20031;-84
2023/10/31 02:52:20;;;;;;;24.63;22.55;;;10.70;99.90;;;;;;6242695;23;20439;-84
2023/10/31 02:54:45;;;;;;;21.35;19.65;;;10.70;99.90;;;;;;6243068;23;20019;-84
2023/10/31 02:57:11;;;;;;;20.00;18.05;;;10.40;99.90;;;;;;6242336;22;20039;-84
2023/10/31 02:59:37;;;;;;;24.92;20.00;;;9.80;99.90;;;;;;6309678;22;20015;-85
2023/10/31 03:02:02;;;;;;;21.67;19.52;;;10.40;99.90;;;;;;6284141;22;20029;-85
2023/10/31 03:04:28;;;;;;;23.58;21.40;;;10.50;99.90;;;;;;6283304;22;20007;-85
2023/10/31 03:06:54;;;;;;;25.15;19.38;;;9.70;99.90;;;;;;6284648;22;20068;-86
2023/10/31 03:09:19;;;;;;;23.63;18.58;;;10.20;99.90;;;;;;6284515;22;20056;-85
2023/10/31 03:11:45;;;;;;;23.50;18.33;;;10.30;99.90;;;;;;6286144;22;20015;-85
2023/10/31 03:14:11;;;;;;;24.45;21.98;;;9.80;99.90;;;;;;6285962;22;20044;-85
2023/10/31 03:16:36;;;;;;;22.63;17.58;;;9.80;99.90;;;;;;6287072;22;20053;-85
2023/10/31 03:19:02;;;;;;;25.33;22.92;;;9.90;99.90;;;;;;6287668;22;20011;-84
2023/10/31 03:21:28;;;;;;;28.08;23.35;;;9.90;99.90;;;;;;6285915;22;20015;-85
2023/10/31 03:23:55;;;;;;;24.90;22.35;;;10.40;99.90;;;;;;6286826;22;20011;-85
2023/10/31 03:26:21;;;;;;;26.65;23.75;;;9.80;99.90;;;;;;6311318;22;20010;-85
2023/10/31 03:28:47;;;;;;;26.13;23.58;;;9.80;99.90;;;;;;6287022;22;20011;-85
2023/10/31 03:31:14;;;;;;;29.58;24.15;;;10.60;99.90;;;;;;6286997;22;20053;-85
2023/10/31 03:33:40;;;;;;;30.15;26.08;;;10.90;99.90;;;;;;6286572;22;20006;-85
2023/10/31 03:36:06;;;;;;;34.50;27.75;;;10.70;99.90;;;;;;6313151;22;20018;-85
2023/10/31 03:38:32;;;;;;;30.63;27.40;;;9.80;99.90;;;;;;6286921;22;20018;-84
2023/10/31 03:40:57;;;;;;;28.02;25.10;;;10.80;99.90;;;;;;6285868;22;20440;-84
2023/10/31 03:43:23;;;;;;;29.23;26.15;;;9.90;99.90;;;;;;6285978;22;20363;-85
2023/10/31 03:45:49;;;;;;;28.55;23.95;;;10.30;99.90;;;;;;6286261;22;20064;-84
2023/10/31 03:48:16;;;;;;;31.98;27.55;;;9.90;99.90;;;;;;6286990;22;20007;-84
2023/10/31 03:50:42;;;;;;;40.95;25.77;;;10.80;99.90;;;;;;6285828;22;20049;-85
2023/10/31 03:53:08;;;;;;;42.15;25.63;;;10.50;99.90;;;;;;6284820;22;20090;-84
2023/10/31 03:55:34;;;;;;;31.83;25.73;;;10.90;99.90;;;;;;6284816;22;20445;-83
2023/10/31 03:57:59;;;;;;;34.15;25.80;;;11.00;99.90;;;;;;6286981;22;20021;-84
2023/10/31 04:00:25;;;;;;;32.67;27.48;;;9.90;99.90;;;;;;6311194;22;20090;-83
2023/10/31 04:02:51;;;;;;;33.03;25.48;;;9.90;99.90;;;;;;6285166;22;20416;-84
2023/10/31 04:05:17;;;;;;;29.30;24.23;;;9.90;99.90;;;;;;6285580;22;20030;-84
2023/10/31 04:07:43;;;;;;;28.30;24.42;;;9.90;99.90;;;;;;6284776;22;20049;-84
2023/10/31 04:10:09;;;;;;;31.80;24.33;;;9.90;99.90;;;;;;6285370;22;20417;-84
2023/10/31 04:12:35;;;;;;;34.15;26.08;;;9.90;99.90;;;;;;6285832;22;20015;-83
2023/10/31 04:15:01;;;;;;;36.70;26.85;;;10.40;99.90;;;;;;6286389;22;20011;-84
2023/10/31 04:17:27;;;;;;;29.88;24.58;;;10.90;99.90;;;;;;6286429;22;20016;-85
2023/10/31 04:19:53;;;;;;;41.75;23.73;;;10.30;99.90;;;;;;6286066;22;20010;-84
2023/10/31 04:22:18;;;;;;;32.25;23.15;;;10.10;99.90;;;;;;6286063;22;20106;-84
2023/10/31 04:24:44;;;;;;;28.30;25.25;;;10.90;99.90;;;;;;6286410;22;20552;-83
2023/10/31 04:27:10;;;;;;;31.70;25.50;;;11.00;99.90;;;;;;6286884;22;20011;-87
2023/10/31 04:29:35;;;;;;;33.80;25.10;;;10.00;99.90;;;;;;6286244;22;20017;-86
2023/10/31 04:32:01;;;;;;;28.35;23.50;;;10.80;99.90;;;;;;6285256;22;20011;-84
2023/10/31 04:34:26;;;;;;;26.13;23.38;;;10.00;99.90;;;;;;6286177;22;20006;-83
2023/10/31 04:36:52;;;;;;;24.13;21.17;;;10.10;99.90;;;;;;6312595;22;20043;-84
2023/10/31 04:39:18;;;;;;;24.08;21.83;;;10.00;99.90;;;;;;6311447;22;20468;-85
2023/10/31 04:41:44;;;;;;;27.05;24.30;;;10.00;99.90;;;;;;6312904;22;20015;-83
2023/10/31 04:44:09;;;;;;;27.85;24.30;;;10.00;99.90;;;;;;6287263;22;20086;-83
2023/10/31 04:46:35;;;;;;;26.73;24.08;;;10.00;99.90;;;;;;6312318;22;20014;-83
2023/10/31 04:49:01;;;;;;;27.45;21.23;;;10.60;99.90;;;;;;6312421;22;20463;-84
2023/10/31 04:51:26;;;;;;;26.60;24.50;;;10.10;99.90;;;;;;6312772;22;20010;-85
2023/10/31 04:53:52;;;;;;;21.55;19.27;;;10.00;99.90;;;;;;6312341;22;20021;-85
2023/10/31 04:56:18;;;;;;;25.00;22.45;;;10.90;99.90;;;;;;6287289;22;20017;-84
2023/10/31 04:58:48;;;;;;;27.73;22.10;;;10.10;99.90;;;;;;6315725;22;20019;-85
2023/10/31 05:01:14;;;;;;;21.23;19.20;;;10.00;99.90;;;;;;6315197;22;20019;-84
2023/10/31 05:03:40;;;;;;;23.63;21.08;;;10.00;99.90;;;;;;6313849;22;20015;-87
2023/10/31 05:06:09;;;;;;;25.50;23.13;;;11.00;99.90;;;;;;6313174;22;20015;-84
2023/10/31 05:08:35;;;;;;;23.38;21.33;;;10.00;99.90;;;;;;6313531;22;20011;-86
2023/10/31 05:11:00;;;;;;;23.38;21.35;;;10.40;99.90;;;;;;6313309;22;20035;-85
2023/10/31 05:13:26;;;;;;;20.67;18.48;;;10.00;99.90;;;;;;6287128;22;20336;-85
2023/10/31 05:15:52;;;;;;;24.80;22.48;;;10.00;99.90;;;;;;6286958;22;20089;-85
2023/10/31 05:18:17;;;;;;;24.15;22.05;;;10.70;99.90;;;;;;6313772;22;20011;-85
2023/10/31 05:20:43;;;;;;;21.92;19.63;;;10.10;99.90;;;;;;6312109;22;20070;-85
2023/10/31 05:23:09;;;;;;;23.13;19.73;;;10.00;99.90;;;;;;6286131;22;20046;-84
2023/10/31 05:25:36;;;;;;;22.58;20.25;;;10.90;99.90;;;;;;6310420;22;20015;-84
2023/10/31 05:28:02;;;;;;;21.02;18.83;;;11.00;99.90;;;;;;6310893;22;20082;-84
2023/10/31 05:30:27;;;;;;;19.75;18.38;;;10.00;99.90;;;;;;6286446;22;20040;-85
2023/10/31 05:32:53;;;;;;;17.98;16.52;;;10.10;99.90;;;;;;6311829;22;20340;-84
2023/10/31 05:35:19;;;;;;;24.25;22.45;;;11.00;99.90;;;;;;6312362;22;20336;-84
2023/10/31 05:37:46;;;;;;;20.00;18.42;;;10.00;99.90;;;;;;6286399;22;20046;-84
2023/10/31 05:40:12;;;;;;;20.80;19.02;;;10.30;99.90;;;;;;6312635;22;20059;-85
2023/10/31 05:42:39;;;;;;;21.00;19.15;;;10.00;99.90;;;;;;6312456;22;20044;-84
2023/10/31 05:45:05;;;;;;;21.13;19.52;;;11.10;99.90;;;;;;6313038;22;20007;-85
2023/10/31 05:47:32;;;;;;;22.90;21.30;;;10.00;99.90;;;;;;6289837;22;20017;-85
2023/10/31 05:49:58;;;;;;;22.55;20.65;;;10.60;99.90;;;;;;6321058;22;20011;-87
2023/10/31 05:52:29;;;;;;;20.95;19.13;;;10.80;99.90;;;;;;6297546;22;20015;-87
2023/10/31 05:54:54;;;;;;;22.63;20.63;;;10.10;99.90;;;;;;6298596;22;20040;-87
2023/10/31 05:57:20;;;;;;;20.75;19.33;;;10.20;99.90;;;;;;6293957;22;20014;-85
2023/10/31 05:59:45;;;;;;;22.88;20.95;;;11.00;99.90;;;;;;6319386;22;20030;-85
2023/10/31 06:02:13;;;;;;;23.02;21.38;;;9.50;99.90;;;;;;6319402;22;20097;-85
2023/10/31 06:04:38;;;;;;;22.10;20.55;;;9.90;99.90;;;;;;6319342;22;20064;-85
2023/10/31 06:07:04;;;;;;;21.95;20.02;;;10.60;99.90;;;;;;6293829;22;20011;-85
2023/10/31 06:09:30;;;;;;;22.52;20.55;;;11.00;99.90;;;;;;6319617;22;20007;-85
2023/10/31 06:11:55;;;;;;;22.95;21.33;;;10.50;99.90;;;;;;6293433;22;20036;-85
2023/10/31 06:14:21;;;;;;;21.55;19.73;;;11.00;99.90;;;;;;6320374;22;20026;-85
2023/10/31 06:16:47;;;;;;;21.55;19.90;;;10.40;99.90;;;;;;6294162;22;20045;-85
2023/10/31 06:19:12;;;;;;;22.25;20.35;;;11.00;99.90;;;;;;6294557;22;20003;-85
2023/10/31 06:21:38;;;;;;;21.60;19.92;;;10.00;99.90;;;;;;6290112;22;20019;-85
2023/10/31 06:24:04;;;;;;;22.67;20.30;;;10.50;99.90;;;;;;6284344;22;20015;-85
2023/10/31 06:26:30;;;;;;;21.38;19.50;;;10.00;99.90;;;;;;6293853;22;20042;-85
2023/10/31 06:28:56;;;;;;;20.90;19.17;;;10.30;99.90;;;;;;6319811;22;20032;-85
2023/10/31 06:31:22;;;;;;;20.88;19.27;;;10.50;99.90;;;;;;6319414;22;20046;-85
2023/10/31 06:33:47;;;;;;;21.67;19.92;;;10.40;99.90;;;;;;6292841;22;20015;-85
2023/10/31 06:36:13;;;;;;;21.02;19.42;;;10.00;99.90;;;;;;6318651;22;20010;-86
2023/10/31 06:38:39;;;;;;;18.45;16.55;;;10.00;99.90;;;;;;6319400;22;20011;-85
2023/10/31 06:41:04;;;;;;;25.02;22.98;;;10.50;99.90;;;;;;6293068;22;20029;-84
2023/10/31 06:43:30;;;;;;;22.63;20.48;;;9.60;99.90;;;;;;6319396;22;20015;-85
2023/10/31 06:45:56;;;;;;;26.17;23.90;;;10.10;99.90;;;;;;6294569;22;20015;-85
2023/10/31 06:48:22;;;;;;;25.20;22.63;;;10.30;99.90;;;;;;6294309;22;20303;-85
2023/10/31 06:50:48;;;;;;;27.65;24.60;;;11.20;99.90;;;;;;6320372;22;20010;-84
2023/10/31 06:53:14;;;;;;;28.23;25.58;;;10.10;99.90;;;;;;6320131;22;20464;-85
2023/10/31 06:55:39;;;;;;;27.38;24.80;;;10.40;99.90;;;;;;6295231;22;20003;-85
2023/10/31 06:58:05;;;;;;;30.73;24.88;;;10.10;99.90;;;;;;6314540;22;20066;-85
2023/10/31 07:00:31;;;;;;;34.22;26.45;;;10.10;99.90;;;;;;6290679;22;20019;-86
2023/10/31 07:02:58;;;;;;;30.55;24.15;;;10.10;99.90;;;;;;6288890;22;20015;-85
2023/10/31 07:05:24;;;;;;;25.80;23.20;;;10.30;99.90;;;;;;6313720;22;20015;-85
2023/10/31 07:07:50;;;;;;;26.77;23.98;;;10.90;99.90;;;;;;6313653;22;20011;-85
2023/10/31 07:10:16;;;;;;;34.40;25.85;;;11.10;99.90;;;;;;6313122;22;20019;-85
2023/10/31 07:12:41;;;;;;;29.40;25.88;;;10.10;99.90;;;;;;6286513;22;20039;-85
2023/10/31 07:15:07;;;;;;;27.55;22.70;;;10.10;99.90;;;;;;6286385;22;20064;-84
2023/10/31 07:17:33;;;;;;;33.47;26.73;;;10.10;99.90;;;;;;6312922;22;20007;-84
2023/10/31 07:19:59;;;;;;;29.25;24.52;;;10.40;99.90;;;;;;6288728;22;20341;-84
2023/10/31 07:22:25;;;;;;;29.67;24.98;;;10.20;99.90;;;;;;6312621;22;20023;-84
2023/10/31 07:24:51;;;;;;;29.77;25.42;;;10.80;99.90;;;;;;6286875;22;20022;-84
2023/10/31 07:27:17;;;;;;;29.52;26.23;;;10.20;99.90;;;;;;6286495;22;20098;-84
2023/10/31 07:29:44;;;;;;;25.88;22.98;;;11.10;99.90;;;;;;6311593;22;20011;-85
2023/10/31 07:32:10;;;;;;;32.13;25.17;;;11.00;99.90;;;;;;6311680;22;20035;-85
2023/10/31 07:34:35;;;;;;;30.88;23.60;;;10.20;99.90;;;;;;6286907;22;20019;-85
2023/10/31 07:37:01;;;;;;;27.15;23.25;;;10.30;99.90;;;;;;6286427;22;20025;-85
2023/10/31 07:39:27;;;;;;;36.70;25.75;;;10.30;99.90;;;;;;6311932;22;20007;-84
2023/10/31 07:41:53;;;;;;;33.53;24.80;;;10.90;99.90;;;;;;6286795;22;20033;-86
2023/10/31 07:44:18;;;;;;;34.80;25.63;;;10.60;99.90;;;;;;6286855;22;20018;-85
2023/10/31 07:46:44;;;;;;;29.17;23.77;;;11.20;99.90;;;;;;6311697;22;20015;-84
2023/10/31 07:49:10;;;;;;;31.30;25.25;;;10.30;99.90;;;;;;6286493;22;20019;-84
2023/10/31 07:51:35;;;;;;;27.77;24.98;;;11.30;99.90;;;;;;6286370;22;20011;-84
2023/10/31 07:54:01;;;;;;;25.33;22.48;;;10.70;99.90;;;;;;6311876;22;20065;-85
2023/10/31 07:56:28;;;;;;;33.53;23.38;;;10.30;99.90;;;;;;6285506;22;20015;-85
2023/10/31 07:58:54;;;;;;;26.17;22.60;;;10.40;99.90;;;;;;6311677;22;20064;-84
2023/10/31 08:01:21;;;;;;;20.45;16.50;;;10.40;99.90;;;;;;6313217;22;20421;-84
2023/10/31 08:03:47;;;;;;;24.55;16.73;;;10.50;99.90;;;;;;6286825;22;20045;-84
2023/10/31 08:06:13;;;;;;;25.48;15.90;;;11.00;99.90;;;;;;6312046;22;20086;-84
2023/10/31 08:08:39;;;;;;;20.33;18.20;;;11.30;99.90;;;;;;6311983;22;20007;-84
2023/10/31 08:11:09;;;;;;;23.30;20.95;;;10.50;99.90;;;;;;6312723;22;20094;-84
2023/10/31 08:13:37;;;;;;;21.00;15.60;;;10.50;99.90;;;;;;6286273;22;20007;-83
2023/10/31 08:16:04;;;;;;;19.52;13.98;;;10.80;99.90;;;;;;6285227;22;20017;-83
2023/10/31 08:18:29;;;;;;;19.42;17.60;;;10.60;99.90;;;;;;6286822;22;20012;-84
2023/10/31 08:20:55;;;;;;;19.58;15.25;;;10.60;99.90;;;;;;6311501;22;20386;-84
2023/10/31 08:23:21;;;;;;;18.60;16.77;;;10.90;99.90;;;;;;6312053;22;20015;-84
2023/10/31 08:25:46;;;;;;;16.55;15.07;;;10.70;99.90;;;;;;6312327;22;20007;-84
2023/10/31 08:28:12;;;;;;;15.20;13.82;;;10.80;99.90;;;;;;6312550;22;20014;-82
2023/10/31 08:30:39;;;;;;;18.25;16.45;;;11.40;99.90;;;;;;6313063;22;20031;-83
2023/10/31 08:33:04;;;;;;;15.95;13.35;;;11.40;99.90;;;;;;6313542;22;20015;-84
2023/10/31 08:35:30;;;;;;;18.55;16.42;;;11.30;99.90;;;;;;6288206;22;20345;-83
2023/10/31 08:37:57;;;;;;;19.60;18.02;;;10.80;99.90;;;;;;6286901;22;20011;-84
2023/10/31 08:40:23;;;;;;;20.40;18.65;;;11.30;99.90;;;;;;6286744;22;20090;-84
2023/10/31 08:42:48;;;;;;;17.25;15.85;;;11.20;99.90;;;;;;6312704;22;20463;-84
2023/10/31 08:45:15;;;;;;;13.30;10.50;;;10.90;99.90;;;;;;6287116;22;20017;-84
2023/10/31 08:47:40;;;;;;;17.38;15.95;;;11.40;99.90;;;;;;6313193;22;20011;-84
2023/10/31 08:50:11;;;;;;;19.95;17.58;;;11.90;99.90;;;;;;6313175;22;20012;-85
2023/10/31 08:52:37;;;;;;;13.77;12.57;;;10.90;99.90;;;;;;6312877;22;20011;-85
2023/10/31 08:55:03;;;;;;;14.95;10.25;;;11.20;99.90;;;;;;6287307;22;20306;-84
2023/10/31 08:57:29;;;;;;;9.40;8.45;;;10.90;99.90;;;;;;6286794;22;20015;-84
2023/10/31 08:59:55;;;;;;;12.02;10.95;;;11.30;99.90;;;;;;6287641;22;20019;-85
2023/10/31 09:02:20;;;;;;;8.52;6.03;;;11.50;99.90;;;;;;6314235;22;20007;-84
2023/10/31 09:04:46;;;;;;;7.32;6.63;;;11.00;99.90;;;;;;6289301;22;20445;-84
2023/10/31 09:07:12;;;;;;;16.02;14.63;;;11.30;99.90;;;;;;6288296;22;20007;-85
2023/10/31 09:09:37;;;;;;;8.95;7.15;;;11.50;99.90;;;;;;6314579;22;20041;-83
2023/10/31 09:12:03;;;;;;;14.05;12.75;;;11.40;99.90;;;;;;6314415;22;20073;-85
2023/10/31 09:14:29;;;;;;;12.13;10.93;;;10.50;99.90;;;;;;6313598;22;20376;-85
2023/10/31 09:16:55;;;;;;;7.72;5.95;;;11.10;99.90;;;;;;6288572;22;20017;-84
2023/10/31 09:19:20;;;;;;;7.75;5.82;;;11.10;99.90;;;;;;6287582;22;20033;-85
2023/10/31 09:21:46;;;;;;;10.88;6.40;;;11.80;99.90;;;;;;6287128;22;20441;-84
2023/10/31 09:24:12;;;;;;;11.90;7.10;;;11.30;99.90;;;;;;6313031;22;20022;-84
2023/10/31 09:26:42;;;;;;;14.38;10.20;;;11.40;99.90;;;;;;6286977;22;20015;-85
2023/10/31 09:29:07;;;;;;;17.58;11.32;;;11.50;99.90;;;;;;6312543;22;20017;-85
2023/10/31 09:31:33;;;;;;;16.08;9.65;;;11.70;99.90;;;;;;6312623;22;20345;-84
2023/10/31 09:33:59;;;;;;;15.13;9.85;;;11.60;99.90;;;;;;6311915;22;20516;-84
2023/10/31 09:36:25;;;;;;;15.85;8.23;;;12.10;99.90;;;;;;6311900;22;20015;-84
2023/10/31 09:38:51;;;;;;;24.58;20.73;;;12.10;99.90;;;;;;6286121;22;20019;-85
2023/10/31 09:41:16;;;;;;;7.55;5.55;;;11.50;99.90;;;;;;6286423;22;20106;-85
2023/10/31 09:43:42;;;;;;;8.98;6.30;;;12.00;99.90;;;;;;6285811;22;20011;-85
2023/10/31 09:46:09;;;;;;;10.70;9.73;;;11.40;99.90;;;;;;6286759;22;20011;-84
2023/10/31 09:48:35;;;;;;;10.63;8.55;;;11.30;99.90;;;;;;6286135;22;20019;-85
2023/10/31 09:51:02;;;;;;;11.23;9.88;;;11.30;99.90;;;;;;6311368;22;20015;-84
2023/10/31 09:53:29;;;;;;;14.75;13.43;;;11.20;99.90;;;;;;6285020;22;20033;-85
2023/10/31 09:55:56;;;;;;;11.70;10.60;;;11.10;99.90;;;;;;6311474;22;20529;-84
2023/10/31 09:58:22;;;;;;;14.63;10.60;;;11.20;99.90;;;;;;6285565;22;20030;-84
2023/10/31 10:00:48;;;;;;;9.65;5.57;;;11.30;99.90;;;;;;6285135;22;20007;-83
2023/10/31 10:03:14;;;;;;;15.63;14.50;;;11.70;99.90;;;;;;6285520;22;20039;-84
2023/10/31 10:05:43;;;;;;;12.55;11.73;;;11.20;99.90;;;;;;6285018;22;20036;-84
2023/10/31 10:08:10;;;;;;;20.17;18.55;;;11.80;99.90;;;;;;6285991;22;20148;-84
2023/10/31 10:10:36;;;;;;;13.93;12.32;;;11.10;99.90;;;;;;6286054;22;20011;-83
2023/10/31 10:13:03;;;;;;;11.82;10.90;;;11.00;99.90;;;;;;6312226;22;20038;-83
2023/10/31 10:15:48;;;;;;;12.88;11.77;;;10.60;99.90;;;;;;6315122;22;20337;-83
2023/10/31 10:18:40;;;;;;;15.35;14.05;;;11.20;99.90;;;;;;6288069;22;20140;-84
2023/10/31 10:21:08;;;;;;;15.15;13.77;;;11.00;99.90;;;;;;6312273;22;20452;-84
2023/10/31 10:23:33;;;;;;;17.38;15.63;;;11.20;99.90;;;;;;6286183;22;20015;-84
2023/10/31 10:26:00;;;;;;;13.15;11.98;;;10.70;99.90;;;;;;6286601;22;20094;-84
2023/10/31 10:28:26;;;;;;;12.73;11.50;;;11.20;99.90;;;;;;6312531;22;20015;-83
2023/10/31 10:30:56;;;;;;;13.52;12.20;;;11.30;99.90;;;;;;6286457;22;20278;-84
2023/10/31 10:33:22;;;;;;;13.55;11.25;;;11.30;99.90;;;;;;6287144;22;20015;-84
2023/10/31 10:35:48;;;;;;;14.23;12.93;;;11.40;99.90;;;;;;6286412;22;20253;-83
2023/10/31 10:38:18;;;;;;;12.52;11.48;;;11.40;99.90;;;;;;6312053;22;20281;-83
2023/10/31 10:40:45;;;;;;;16.80;13.50;;;11.40;99.90;;;;;;6286057;22;20016;-83
2023/10/31 10:43:22;;;;;;;11.93;9.60;;;11.80;99.90;;;;;;6312672;22;20370;-84
2023/10/31 10:45:57;;;;;;;9.77;9.07;;;11.50;99.90;;;;;;6312081;22;20011;-83
2023/10/31 10:48:23;;;;;;;12.02;10.57;;;11.50;99.90;;;;;;6313062;22;20453;-83
2023/10/31 10:51:15;;;;;;;12.57;11.23;;;11.50;99.90;;;;;;6312324;22;20056;-83
2023/10/31 10:53:57;;;;;;;11.73;10.57;;;11.50;99.90;;;;;;6287241;22;20344;-84
2023/10/31 10:56:33;;;;;;;13.32;12.02;;;12.20;99.90;;;;;;6287951;22;20011;-84
2023/10/31 10:59:07;;;;;;;14.93;12.07;;;11.60;99.90;;;;;;6267392;22;20049;-84
2023/10/31 11:01:35;;;;;;;13.63;10.45;;;12.10;99.90;;;;;;6313511;22;20033;-83
2023/10/31 11:04:02;;;;;;;8.63;7.85;;;11.60;99.90;;;;;;6287861;22;20003;-84
2023/10/31 11:06:29;;;;;;;14.45;12.98;;;11.70;99.90;;;;;;6287663;22;20015;-83
2023/10/31 11:08:55;;;;;;;14.00;11.15;;;11.80;99.90;;;;;;6313511;22;20025;-84
2023/10/31 11:11:22;;;;;;;19.17;17.38;;;11.70;99.90;;;;;;6287439;22;20067;-84
2023/10/31 11:13:53;;;;;;;21.17;19.27;;;12.10;99.90;;;;;;6314295;22;20011;-82
2023/10/31 11:16:33;;;;;;;9.70;8.90;;;11.60;99.90;;;;;;6313812;22;20015;-82
2023/10/31 11:18:59;;;;;;;13.75;12.25;;;11.70;99.90;;;;;;6314162;22;20008;-83
2023/10/31 11:21:29;;;;;;;13.82;12.60;;;12.30;99.90;;;;;;6313428;22;20019;-84
2023/10/31 11:23:59;;;;;;;15.63;14.10;;;11.80;99.90;;;;;;6312993;22;20293;-83
2023/10/31 11:26:30;;;;;;;12.30;11.20;;;12.20;99.90;;;;;;6287371;22;20026;-83
2023/10/31 11:29:06;;;;;;;17.17;15.60;;;11.40;99.90;;;;;;6287923;22;20257;-82
2023/10/31 11:31:35;;;;;;;20.40;18.73;;;11.30;99.90;;;;;;6314474;22;20025;-83
2023/10/31 11:34:02;;;;;;;20.70;19.30;;;11.20;99.90;;;;;;6315394;22;20468;-83
2023/10/31 11:36:32;;;;;;;17.98;16.63;;;11.10;99.90;;;;;;6315330;22;20011;-83
2023/10/31 11:39:26;;;;;;;19.02;17.67;;;11.10;99.90;;;;;;6289239;22;20007;-83
2023/10/31 11:41:56;;;;;;;25.05;23.05;;;11.10;99.90;;;;;;6315597;22;20023;-83
2023/10/31 11:44:28;;;;;;;22.13;20.48;;;11.30;99.90;;;;;;6289400;22;20090;-84
2023/10/31 11:46:54;;;;;;;15.70;14.35;;;11.20;99.90;;;;;;6289984;22;20015;-84
2023/10/31 11:49:50;;;;;;;19.40;17.25;;;11.60;99.90;;;;;;6289832;22;20011;-83
2023/10/31 11:52:17;;;;;;;17.65;15.27;;;11.40;99.90;;;;;;6289539;22;20312;-83
2023/10/31 11:54:43;;;;;;;16.58;15.10;;;11.40;99.90;;;;;;6315776;22;20007;-83
2023/10/31 11:57:08;;;;;;;19.77;18.08;;;11.50;99.90;;;;;;6289126;22;20095;-83
2023/10/31 11:59:38;;;;;;;18.65;16.77;;;11.40;99.90;;;;;;6288877;22;20015;-83
2023/10/31 12:02:18;;;;;;;14.00;12.75;;;11.40;99.90;;;;;;6289040;22;20048;-83
2023/10/31 12:04:44;;;;;;;19.73;18.05;;;11.40;99.90;;;;;;6289840;22;20063;-83
2023/10/31 12:07:10;;;;;;;15.27;13.73;;;11.40;99.90;;;;;;6289224;22;20069;-83
2023/10/31 12:09:48;;;;;;;25.10;22.58;;;11.50;99.90;;;;;;6314832;22;20019;-83
2023/10/31 12:12:15;;;;;;;25.58;22.88;;;11.40;99.90;;;;;;6289429;22;20165;-83
2023/10/31 12:14:41;;;;;;;18.70;17.02;;;11.40;99.90;;;;;;6289615;22;20389;-84
2023/10/31 12:17:07;;;;;;;23.52;20.38;;;11.50;99.90;;;;;;6289620;22;20092;-83
2023/10/31 12:19:33;;;;;;;19.42;17.77;;;11.50;99.90;;;;;;6289393;22;20011;-83
2023/10/31 12:21:59;;;;;;;17.45;14.50;;;11.60;99.90;;;;;;6288346;22;20483;-83
2023/10/31 12:24:24;;;;;;;21.85;20.05;;;11.60;99.90;;;;;;6289356;22;20019;-83
2023/10/31 12:26:51;;;;;;;24.35;22.55;;;11.60;99.90;;;;;;6315461;22;20007;-84